Time;durP1;ratioP1;P1;durP2;ratioP2;P2;SDS_P1;SDS_P2;PMS_P1;PMS_P2;Temp;Humidity;BMP_temperature;BMP_pressure;BME280_temperature;BME280_humidity;BME280_pressure;Samples;Min_cycle;Max_cycle;Signal;HPM_P1;HPM_P2
2021/01/18 00:02:10;;;;;;;54.40;24.30;;;;;;;-17.48;68.05;100255.46;1765853;80;21934;-66
2021/01/18 00:04:39;;;;;;;41.57;19.33;;;;;;;-17.55;67.99;100252.32;1774391;79;21084;-66
2021/01/18 00:07:07;;;;;;;38.50;18.02;;;;;;;-17.62;67.99;100257.98;1766840;80;21114;-66
2021/01/18 00:09:36;;;;;;;61.23;24.57;;;;;;;-17.63;67.98;100262.98;1772526;80;21477;-67
2021/01/18 00:12:05;;;;;;;60.17;25.10;;;;;;;-17.70;67.91;100269.11;1776354;80;21133;-66
2021/01/18 00:14:33;;;;;;;53.57;24.93;;;;;;;-17.74;67.92;100256.38;1755482;80;22046;-66
2021/01/18 00:17:06;;;;;;;55.78;25.12;;;;;;;-17.80;67.87;100249.86;1776245;80;21177;-66
2021/01/18 00:19:35;;;;;;;60.63;27.50;;;;;;;-17.85;67.82;100252.62;1768125;80;21075;-66
2021/01/18 00:22:03;;;;;;;53.70;25.17;;;;;;;-17.89;67.81;100251.68;1772611;80;22695;-66
2021/01/18 00:24:31;;;;;;;59.97;26.57;;;;;;;-17.90;67.85;100246.59;1802278;77;20978;-67
2021/01/18 00:27:00;;;;;;;56.33;23.73;;;;;;;-17.93;67.88;100246.50;1791950;77;22948;-66
2021/01/18 00:29:28;;;;;;;49.70;22.20;;;;;;;-17.96;67.86;100247.23;1793579;78;21494;-67
2021/01/18 00:31:58;;;;;;;64.47;27.30;;;;;;;-17.95;67.91;100251.47;1803630;78;21059;-66
2021/01/18 00:34:26;;;;;;;65.97;25.60;;;;;;;-18.00;67.87;100256.38;1790680;78;22700;-66
2021/01/18 00:36:54;;;;;;;73.40;28.57;;;;;;;-18.01;67.85;100258.45;1807000;78;21205;-66
2021/01/18 00:39:22;;;;;;;91.37;33.00;;;;;;;-18.01;67.91;100259.71;1792977;78;22050;-66
2021/01/18 00:41:50;;;;;;;71.47;28.97;;;;;;;-18.01;67.99;100253.81;1798687;77;21186;-66
2021/01/18 00:44:17;;;;;;;67.50;28.13;;;;;;;-18.02;67.99;100252.10;1790774;78;21087;-66
2021/01/18 00:46:45;;;;;;;62.37;26.30;;;;;;;-18.06;67.98;100252.38;1799906;78;21056;-66
2021/01/18 00:49:14;;;;;;;63.73;27.37;;;;;;;-18.09;67.91;100247.66;1791372;78;21067;-66
2021/01/18 00:51:42;;;;;;;64.10;27.93;;;;;;;-18.14;67.87;100249.16;1791822;77;22134;-66
2021/01/18 00:54:10;;;;;;;84.83;32.67;;;;;;;-18.19;67.81;100250.28;1805715;78;21063;-66
2021/01/18 00:56:40;;;;;;;69.23;28.30;;;;;;;-18.21;67.79;100253.56;1795828;78;21202;-66
2021/01/18 00:59:10;;;;;;;63.50;28.07;;;;;;;-18.25;67.87;100250.06;1796543;78;21154;-65
2021/01/18 01:01:50;;;;;;;61.80;27.03;;;;;;;-18.24;67.91;100254.29;1887069;76;22651;-65
2021/01/18 01:04:18;;;;;;;68.53;28.97;;;;;;;-18.32;67.85;100257.84;1774100;80;21062;-66
2021/01/18 01:06:46;;;;;;;60.77;27.67;;;;;;;-18.35;67.84;100256.86;1772680;81;22085;-65
2021/01/18 01:09:14;;;;;;;60.63;26.43;;;;;;;-18.37;67.80;100255.95;1778557;80;21121;-65
2021/01/18 01:11:45;;;;;;;67.17;29.93;;;;;;;-18.43;67.80;100253.21;1756379;80;21165;-66
2021/01/18 01:14:13;;;;;;;65.30;27.33;;;;;;;-18.46;67.82;100256.49;1776453;79;21168;-66
2021/01/18 01:16:44;;;;;;;76.67;30.63;;;;;;;-18.47;67.80;100261.48;1796925;79;21047;-66
2021/01/18 01:19:12;;;;;;;63.40;28.13;;;;;;;-18.50;67.81;100257.61;1777607;79;22050;-66
2021/01/18 01:21:39;;;;;;;66.50;29.93;;;;;;;-18.53;67.82;100262.97;1768681;80;22657;-66
2021/01/18 01:24:08;;;;;;;60.63;27.13;;;;;;;-18.57;67.75;100260.31;1787971;79;21560;-66
2021/01/18 01:26:36;;;;;;;57.40;25.57;;;;;;;-18.64;67.66;100262.18;1791861;79;21168;-66
2021/01/18 01:29:04;;;;;;;63.50;26.73;;;;;;;-18.70;67.60;100266.62;1780310;79;21204;-66
2021/01/18 01:31:33;;;;;;;63.13;27.53;;;;;;;-18.71;67.62;100253.98;1794168;79;22046;-66
2021/01/18 01:34:01;;;;;;;66.37;26.83;;;;;;;-18.75;67.58;100258.03;1816407;78;21169;-65
2021/01/18 01:36:30;;;;;;;60.27;25.50;;;;;;;-18.76;67.61;100259.23;1825213;77;21503;-65
2021/01/18 01:38:57;;;;;;;66.47;26.80;;;;;;;-18.78;67.60;100257.92;1815716;77;21036;-65
2021/01/18 01:41:25;;;;;;;71.40;28.40;;;;;;;-18.82;67.54;100254.83;1812321;77;21178;-65
2021/01/18 01:43:53;;;;;;;60.80;25.47;;;;;;;-18.86;67.53;100258.05;1814045;79;22150;-65
2021/01/18 01:46:22;;;;;;;58.83;25.57;;;;;;;-18.88;67.53;100257.14;1814271;77;21230;-66
2021/01/18 01:48:50;;;;;;;58.23;25.77;;;;;;;-18.90;67.60;100253.31;1818337;77;21060;-66
2021/01/18 01:51:18;;;;;;;44.17;19.43;;;;;;;-18.92;67.54;100252.38;1818479;77;21091;-66
2021/01/18 01:53:47;;;;;;;51.33;22.17;;;;;;;-18.92;67.60;100255.30;1830648;77;21519;-66
2021/01/18 01:56:14;;;;;;;57.93;25.70;;;;;;;-18.94;67.62;100251.47;1850058;77;22835;-66
2021/01/18 01:58:42;;;;;;;56.80;24.03;;;;;;;-18.95;67.54;100251.42;1819984;77;21019;-66
2021/01/18 02:01:11;;;;;;;66.27;27.20;;;;;;;-18.96;67.54;100254.75;1791828;79;21061;-66
2021/01/18 02:03:42;;;;;;;55.93;24.97;;;;;;;-18.95;67.62;100256.05;1750025;81;21373;-66
2021/01/18 02:06:12;;;;;;;50.53;21.07;;;;;;;-18.96;67.57;100258.52;1714087;83;21525;-68
2021/01/18 02:08:41;;;;;;;50.47;21.17;;;;;;;-18.99;67.50;100259.67;1749074;81;23012;-67
2021/01/18 02:11:09;;;;;;;44.80;21.80;;;;;;;-19.04;67.44;100261.16;1713155;83;21093;-68
2021/01/18 02:14:02;;;;;;;46.37;19.50;;;;;;;-19.08;67.46;100261.45;1722160;83;21068;-67
2021/01/18 02:16:39;;;;;;;48.48;21.90;;;;;;;-19.03;67.62;100257.83;1672537;84;21117;-67
2021/01/18 02:19:28;;;;;;;47.33;21.43;;;;;;;-19.07;67.53;100256.02;1702675;82;21157;-65
2021/01/18 02:22:25;;;;;;;54.57;22.00;;;;;;;-19.13;67.48;100252.45;1705775;82;24158;-66
2021/01/18 02:25:35;;;;;;;49.97;20.80;;;;;;;-19.14;67.44;100259.95;1662637;82;21211;-65
2021/01/18 02:28:55;;;;;;;39.80;17.53;;;;;;;-19.16;67.47;100262.83;1701847;82;21145;-65
2021/01/18 02:31:41;;;;;;;47.33;18.63;;;;;;;-19.14;67.49;100265.84;1709281;82;21457;-66
2021/01/18 02:34:36;;;;;;;43.93;20.03;;;;;;;-19.09;67.69;100259.73;1729479;82;21072;-65
2021/01/18 02:37:25;;;;;;;47.93;19.93;;;;;;;-19.05;67.69;100274.55;1724029;82;22160;-65
2021/01/18 02:40:07;;;;;;;41.97;17.13;;;;;;;-19.00;67.65;100271.81;1699109;82;21181;-65
2021/01/18 02:42:44;;;;;;;43.30;19.98;;;;;;;-19.00;67.65;100271.41;1710972;82;21181;-65
2021/01/18 02:45:25;;;;;;;44.00;19.10;;;;;;;-18.96;67.78;100267.33;1888577;76;23307;-65
2021/01/18 02:47:54;;;;;;;46.60;20.37;;;;;;;-18.98;67.85;100271.46;1772675;80;21110;-66
2021/01/18 02:50:22;;;;;;;44.93;19.43;;;;;;;-18.95;67.89;100272.81;1775202;80;22060;-66
2021/01/18 02:52:50;;;;;;;39.00;15.93;;;;;;;-18.91;67.95;100280.55;1771191;81;21074;-65
2021/01/18 02:55:17;;;;;;;33.23;16.43;;;;;;;-18.85;68.05;100275.72;1779713;80;21045;-66
2021/01/18 02:57:48;;;;;;;48.07;20.17;;;;;;;-18.81;68.05;100267.90;1832577;77;21145;-65
2021/01/18 03:00:23;;;;;;;45.43;19.57;;;;;;;-18.75;68.08;100269.77;1817411;77;21023;-65
2021/01/18 03:03:20;;;;;;;39.10;17.97;;;;;;;-18.71;68.16;100269.09;1849495;77;24120;-65
2021/01/18 03:06:18;;;;;;;40.37;18.00;;;;;;;-18.68;68.15;100266.27;1849152;77;22598;-66
2021/01/18 03:08:52;;;;;;;41.53;18.67;;;;;;;-18.67;68.23;100259.56;1816413;79;21109;-66
2021/01/18 03:11:25;;;;;;;48.47;19.00;;;;;;;-18.65;68.18;100258.80;1820556;77;21098;-66
2021/01/18 03:14:15;;;;;;;44.30;19.35;;;;;;;-18.62;68.20;100259.27;1830119;77;27284;-66
2021/01/18 03:16:46;;;;;;;49.40;21.37;;;;;;;-18.55;68.23;100264.59;1849244;77;21867;-66
2021/01/18 03:19:14;;;;;;;41.17;17.30;;;;;;;-18.48;68.32;100254.73;1848924;77;21525;-66
2021/01/18 03:21:46;;;;;;;40.80;19.47;;;;;;;-18.44;68.41;100256.54;1827627;77;21062;-66
2021/01/18 03:24:23;;;;;;;46.45;21.00;;;;;;;-18.40;68.45;100255.45;1849599;77;21113;-66
2021/01/18 03:26:52;;;;;;;47.97;20.23;;;;;;;-18.35;68.45;100261.90;1842093;77;21149;-66
2021/01/18 03:29:19;;;;;;;40.60;18.33;;;;;;;-18.32;68.41;100265.80;1816444;77;24203;-66
2021/01/18 03:31:46;;;;;;;44.27;19.60;;;;;;;-18.32;68.42;100267.92;1848807;77;21061;-66
2021/01/18 03:34:15;;;;;;;43.83;20.43;;;;;;;-18.27;68.49;100263.02;1801388;79;21047;-66
2021/01/18 03:36:43;;;;;;;44.10;19.67;;;;;;;-18.24;68.61;100267.78;1831149;77;21627;-66
2021/01/18 03:39:11;;;;;;;49.77;22.37;;;;;;;-18.17;68.68;100269.23;1844239;77;21039;-66
2021/01/18 03:41:38;;;;;;;44.20;20.30;;;;;;;-18.17;68.69;100270.08;1834627;77;21863;-66
2021/01/18 03:44:06;;;;;;;47.53;21.10;;;;;;;-18.12;68.78;100273.63;1849142;77;22568;-67
2021/01/18 03:46:34;;;;;;;43.10;19.33;;;;;;;-18.07;68.84;100272.10;1840931;77;21138;-67
2021/01/18 03:49:02;;;;;;;42.70;20.50;;;;;;;-18.05;68.81;100279.30;1848438;77;21155;-67
2021/01/18 03:51:31;;;;;;;49.50;22.27;;;;;;;-18.05;68.79;100279.30;1849229;77;21921;-67
2021/01/18 03:53:59;;;;;;;42.97;20.03;;;;;;;-18.01;68.82;100282.81;1848454;77;21876;-67
2021/01/18 03:56:27;;;;;;;42.13;19.00;;;;;;;-17.99;68.92;100279.92;1848952;77;21056;-66
2021/01/18 03:58:55;;;;;;;47.07;19.50;;;;;;;-17.97;68.96;100273.27;1848847;77;21505;-67
2021/01/18 04:01:24;;;;;;;44.23;21.57;;;;;;;-17.99;68.88;100278.27;1675086;76;21091;-67
2021/01/18 04:03:51;;;;;;;46.53;21.07;;;;;;;-18.03;68.76;100281.50;1695492;84;21158;-66
2021/01/18 04:06:20;;;;;;;40.20;17.87;;;;;;;-18.08;68.68;100278.36;1690153;84;22040;-67
2021/01/18 04:08:48;;;;;;;48.73;21.27;;;;;;;-18.14;68.65;100275.63;1682831;84;21105;-66
2021/01/18 04:11:16;;;;;;;53.97;22.47;;;;;;;-18.19;68.60;100278.00;1685549;84;21169;-67
2021/01/18 04:13:44;;;;;;;44.10;20.63;;;;;;;-18.22;68.62;100279.58;1637647;86;22343;-66
2021/01/18 04:16:12;;;;;;;40.93;18.60;;;;;;;-18.26;68.63;100291.20;1663413;84;21160;-67
2021/01/18 04:18:39;;;;;;;45.93;20.83;;;;;;;-18.29;68.55;100278.50;1673523;84;22067;-67
2021/01/18 04:21:07;;;;;;;48.10;20.70;;;;;;;-18.33;68.51;100280.44;1667130;84;22638;-66
2021/01/18 04:23:35;;;;;;;44.83;18.90;;;;;;;-18.37;68.43;100287.45;1693402;84;21390;-66
2021/01/18 04:26:03;;;;;;;76.57;27.73;;;;;;;-18.39;68.40;100294.11;1694041;84;21138;-66
2021/01/18 04:28:31;;;;;;;88.90;28.53;;;;;;;-18.45;68.36;100305.22;1692451;84;21154;-67
2021/01/18 04:30:59;;;;;;;121.93;38.53;;;;;;;-18.49;68.35;100306.78;1692699;84;22083;-67
2021/01/18 04:33:26;;;;;;;96.13;32.53;;;;;;;-18.52;68.37;100301.25;1658699;86;21095;-66
2021/01/18 04:35:57;;;;;;;61.63;24.57;;;;;;;-18.56;68.31;100303.18;1665751;85;22294;-67
2021/01/18 04:38:26;;;;;;;84.28;27.82;;;;;;;-18.60;68.26;100308.92;1666291;84;21096;-67
2021/01/18 04:40:54;;;;;;;155.70;44.90;;;;;;;-18.64;68.28;100307.08;1684205;84;21518;-66
2021/01/18 04:43:22;;;;;;;89.00;31.03;;;;;;;-18.65;68.26;100311.70;1676169;84;21847;-66
2021/01/18 04:45:50;;;;;;;50.93;21.00;;;;;;;-18.67;68.27;100312.45;1687563;84;22603;-65
2021/01/18 04:48:18;;;;;;;54.17;23.17;;;;;;;-18.69;68.24;100310.29;1692120;84;21107;-65
2021/01/18 04:50:46;;;;;;;43.83;20.87;;;;;;;-18.71;68.29;100310.64;1687468;84;21082;-68
2021/01/18 04:53:16;;;;;;;48.87;21.00;;;;;;;-18.74;68.28;100313.02;1684397;83;21130;-66
2021/01/18 04:56:05;;;;;;;55.47;24.07;;;;;;;-18.75;68.24;100326.02;1690968;84;22976;-66
2021/01/18 04:58:33;;;;;;;89.40;31.63;;;;;;;-18.73;68.25;100322.30;1691431;84;21141;-65
2021/01/18 05:01:04;;;;;;;91.83;34.10;;;;;;;-18.74;68.18;100327.73;1664040;85;21141;-69
2021/01/18 05:03:36;;;;;;;83.77;32.27;;;;;;;-18.74;68.24;100334.43;1667450;85;21638;-69
2021/01/18 05:06:35;;;;;;;61.00;25.73;;;;;;;-18.75;68.27;100328.53;1682534;85;21154;-68
2021/01/18 05:09:21;;;;;;;67.83;26.20;;;;;;;-18.76;68.30;100328.08;1688137;85;24298;-65
2021/01/18 05:11:50;;;;;;;116.60;47.40;;;;;;;-18.78;68.28;100331.36;1687983;85;21087;-66
2021/01/18 05:14:18;;;;;;;129.87;48.93;;;;;;;-18.75;68.38;100336.09;1688117;85;21099;-66
2021/01/18 05:16:54;;;;;;;274.17;88.17;;;;;;;-18.73;68.46;100329.84;1688843;85;21074;-67
2021/01/18 05:19:23;;;;;;;358.13;100.67;;;;;;;-18.73;68.44;100337.00;1687942;83;21150;-65
2021/01/18 05:21:51;;;;;;;577.47;165.30;;;;;;;-18.74;68.42;100341.58;1661489;86;22083;-65
2021/01/18 05:24:20;;;;;;;624.17;177.57;;;;;;;-18.72;68.38;100345.01;1661287;86;21115;-65
2021/01/18 05:27:06;;;;;;;638.70;183.57;;;;;;;-18.70;68.42;100338.39;1685729;85;21086;-65
2021/01/18 05:29:36;;;;;;;921.50;310.80;;;;;;;-18.67;68.48;100338.50;1689503;85;21154;-67
2021/01/18 05:32:21;;;;;;;586.57;178.33;;;;;;;-18.64;68.48;100341.08;1681734;85;21074;-66
2021/01/18 05:34:52;;;;;;;548.77;147.30;;;;;;;-18.61;68.48;100336.58;1678436;85;22105;-66
2021/01/18 05:37:20;;;;;;;530.67;132.83;;;;;;;-18.59;68.50;100345.05;1649125;85;21213;-66
2021/01/18 05:39:48;;;;;;;855.60;335.77;;;;;;;-18.56;68.53;100345.14;1675982;85;21087;-65
2021/01/18 05:42:21;;;;;;;575.93;215.30;;;;;;;-18.56;68.56;100348.92;1631215;86;21079;-65
2021/01/18 05:44:48;;;;;;;295.60;108.80;;;;;;;-18.56;68.60;100347.27;1644217;86;21096;-67
2021/01/18 05:47:16;;;;;;;132.87;50.00;;;;;;;-18.53;68.64;100346.51;1679742;84;21905;-67
2021/01/18 05:49:49;;;;;;;149.67;62.30;;;;;;;-18.50;68.67;100357.12;1673940;84;21194;-68
2021/01/18 05:52:27;;;;;;;196.30;74.40;;;;;;;-18.48;68.65;100356.36;1670299;84;21446;-68
2021/01/18 05:55:23;;;;;;;94.83;36.40;;;;;;;-18.45;68.67;100361.91;1661294;85;21095;-68
2021/01/18 05:57:59;;;;;;;55.40;22.47;;;;;;;-18.43;68.66;100366.59;1686086;84;21167;-68
2021/01/18 06:00:31;;;;;;;156.77;56.37;;;;;;;-18.38;68.77;100377.71;1689272;84;22741;-68
2021/01/18 06:03:00;;;;;;;115.90;40.67;;;;;;;-18.33;68.75;100378.72;1693452;83;21089;-68
2021/01/18 06:05:31;;;;;;;153.27;57.47;;;;;;;-18.33;68.72;100374.94;1691238;83;21462;-68
2021/01/18 06:08:17;;;;;;;124.53;49.47;;;;;;;-18.29;68.90;100376.78;1675543;83;21079;-67
2021/01/18 06:10:51;;;;;;;238.47;91.40;;;;;;;-18.22;69.04;100375.34;1690753;83;21378;-66
2021/01/18 06:13:26;;;;;;;341.55;125.55;;;;;;;-18.16;69.06;100381.84;1675833;83;22076;-67
2021/01/18 06:16:09;;;;;;;416.60;150.47;;;;;;;-18.12;69.06;100387.47;1682688;83;21102;-67
2021/01/18 06:18:40;;;;;;;188.53;70.33;;;;;;;-18.10;69.15;100382.08;1686570;83;21153;-66
2021/01/18 06:21:09;;;;;;;138.87;55.53;;;;;;;-18.05;69.25;100386.45;1695841;83;21078;-66
2021/01/18 06:23:37;;;;;;;159.43;61.63;;;;;;;-18.04;69.16;100378.12;1679929;84;21074;-66
2021/01/18 06:26:12;;;;;;;153.70;54.57;;;;;;;-18.01;69.23;100384.52;1696808;83;22048;-67
2021/01/18 06:28:41;;;;;;;85.33;33.63;;;;;;;-17.95;69.29;100385.11;1690567;83;21169;-67
2021/01/18 06:31:11;;;;;;;196.20;79.73;;;;;;;-17.88;69.28;100384.93;1668517;86;21177;-67
2021/01/18 06:33:46;;;;;;;135.87;52.70;;;;;;;-17.84;69.34;100377.55;1635665;87;21078;-67
2021/01/18 06:36:25;;;;;;;281.00;101.10;;;;;;;-17.78;69.45;100373.09;1649113;85;21577;-67
2021/01/18 06:39:03;;;;;;;165.60;59.93;;;;;;;-17.73;69.45;100373.71;1659435;85;22971;-67
2021/01/18 06:41:33;;;;;;;148.20;54.70;;;;;;;-17.69;69.47;100374.22;1655866;85;21171;-67
2021/01/18 06:44:00;;;;;;;107.83;39.93;;;;;;;-17.63;69.44;100377.77;1642539;85;21170;-67
2021/01/18 06:46:34;;;;;;;71.37;29.70;;;;;;;-17.57;69.52;100381.73;1650205;85;21119;-67
2021/01/18 06:49:04;;;;;;;54.63;25.60;;;;;;;-17.58;69.54;100377.09;1684765;83;21006;-67
2021/01/18 06:51:32;;;;;;;43.23;18.63;;;;;;;-17.56;69.67;100384.34;1637017;86;23054;-67
2021/01/18 06:54:00;;;;;;;47.93;22.33;;;;;;;-17.54;69.63;100382.72;1683965;85;21201;-68
2021/01/18 06:57:03;;;;;;;47.23;21.10;;;;;;;-17.50;69.68;100387.05;1670687;83;21118;-66
2021/01/18 06:59:52;;;;;;;44.63;21.05;;;;;;;-17.43;69.76;100384.33;1681065;85;21154;-66
2021/01/18 07:02:27;;;;;;;54.47;21.97;;;;;;;-17.39;69.73;100383.61;1650410;84;21235;-66
2021/01/18 07:05:10;;;;;;;77.27;28.77;;;;;;;-17.33;69.76;100386.75;1683832;84;22076;-66
2021/01/18 07:07:38;;;;;;;86.02;32.73;;;;;;;-17.32;69.62;100390.58;1693632;84;21118;-65
2021/01/18 07:10:11;;;;;;;101.80;36.27;;;;;;;-17.29;69.56;100384.77;1693920;84;21087;-68
2021/01/18 07:12:38;;;;;;;66.77;24.50;;;;;;;-17.27;69.62;100384.02;1691371;84;21095;-67
2021/01/18 07:15:08;;;;;;;85.97;33.73;;;;;;;-17.23;69.58;100383.30;1641660;86;21080;-68
2021/01/18 07:17:56;;;;;;;74.10;30.43;;;;;;;-17.18;69.57;100385.95;1670778;84;22120;-65
2021/01/18 07:20:28;;;;;;;52.20;24.17;;;;;;;-17.15;69.62;100384.81;1610615;87;21183;-66
2021/01/18 07:23:18;;;;;;;52.60;23.33;;;;;;;-17.08;69.37;100384.17;1687293;84;21082;-67
2021/01/18 07:25:52;;;;;;;47.60;22.30;;;;;;;-17.14;69.24;100386.12;1632167;86;21123;-69
2021/01/18 07:28:27;;;;;;;45.93;20.30;;;;;;;-17.20;69.21;100381.27;1668382;84;21087;-69
2021/01/18 07:31:01;;;;;;;45.07;20.80;;;;;;;-17.24;69.22;100388.30;1694852;83;22189;-69
2021/01/18 07:33:35;;;;;;;46.93;21.07;;;;;;;-17.23;69.31;100385.83;1692074;84;21189;-68
2021/01/18 07:36:06;;;;;;;46.27;20.93;;;;;;;-17.21;69.31;100390.92;1688357;83;21205;-69
2021/01/18 07:38:37;;;;;;;43.87;20.60;;;;;;;-17.17;69.43;100389.81;1669030;84;21161;-69
2021/01/18 07:41:11;;;;;;;49.43;21.13;;;;;;;-17.08;69.53;100384.17;1691934;84;21070;-69
2021/01/18 07:43:42;;;;;;;44.87;20.80;;;;;;;-17.04;69.45;100393.58;1691566;84;21976;-68
2021/01/18 07:46:32;;;;;;;41.48;19.17;;;;;;;-16.97;69.50;100394.23;1677202;84;21177;-69
2021/01/18 07:49:17;;;;;;;46.57;23.97;;;;;;;-16.92;69.48;100386.78;1627906;86;21453;-68
2021/01/18 07:51:45;;;;;;;47.40;22.30;;;;;;;-16.91;69.50;100391.88;1641938;85;21103;-70
2021/01/18 07:54:32;;;;;;;47.93;21.50;;;;;;;-16.85;69.39;100392.07;1673602;85;21135;-69
2021/01/18 07:57:30;;;;;;;50.83;24.13;;;;;;;-16.83;69.42;100394.23;1667456;84;22834;-69
2021/01/18 08:03:14;;;;;;;43.33;19.27;;;;;;;-16.56;69.57;100403.43;1866239;75;22291;-70
2021/01/18 08:05:42;;;;;;;44.10;20.97;;;;;;;-16.53;69.57;100411.09;1826431;78;21516;-69
2021/01/18 08:08:16;;;;;;;35.40;16.10;;;;;;;-16.39;69.61;100421.62;1841652;78;22049;-70
2021/01/18 08:10:56;;;;;;;;;;;;;;;-16.30;69.55;100425.28;1812352;78;21504;-70
2021/01/18 08:13:49;;;;;;;34.40;17.00;;;;;;;-16.27;69.41;100423.23;1832274;78;20209;-69
2021/01/18 08:16:29;;;;;;;30.00;15.03;;;;;;;-16.21;69.45;100429.34;1837957;77;21059;-69
2021/01/18 08:19:05;;;;;;;31.67;14.10;;;;;;;-16.14;69.36;100420.64;1806890;78;21175;-68
2021/01/18 08:21:39;;;;;;;31.20;15.17;;;;;;;-16.08;69.39;100425.48;1802465;78;22011;-68
2021/01/18 08:24:15;;;;;;;32.07;15.47;;;;;;;-15.98;69.49;100424.92;1778402;79;21195;-69
2021/01/18 08:26:59;;;;;;;27.80;13.50;;;;;;;-15.83;69.47;100421.94;1791221;78;21107;-66
2021/01/18 08:29:45;;;;;;;32.58;15.75;;;;;;;-15.74;69.45;100428.51;1778314;79;21198;-66
2021/01/18 08:32:38;;;;;;;26.97;13.57;;;;;;;-15.67;69.24;100421.95;1807567;77;21138;-67
2021/01/18 08:35:10;;;;;;;31.75;15.90;;;;;;;-15.68;68.98;100421.50;1792172;79;21871;-66
2021/01/18 08:37:38;;;;;;;33.18;14.93;;;;;;;-15.64;68.97;100420.75;1780425;79;21649;-66
2021/01/18 08:40:14;;;;;;;33.10;14.78;;;;;;;-15.64;68.91;100414.02;1791755;78;21115;-65
2021/01/18 08:42:44;;;;;;;26.80;13.27;;;;;;;-15.69;68.54;100416.00;1791865;78;21135;-66
2021/01/18 08:45:26;;;;;;;27.53;12.47;;;;;;;-15.68;68.70;100413.50;1806234;78;21621;-67
2021/01/18 08:48:00;;;;;;;33.23;14.40;;;;;;;-15.57;68.66;100403.62;1798572;78;21882;-65
2021/01/18 08:50:45;;;;;;;39.88;16.10;;;;;;;-15.57;68.39;100404.88;1790220;79;21638;-65
2021/01/18 08:53:33;;;;;;;41.63;17.73;;;;;;;-15.55;68.44;100403.65;1781985;79;21481;-65
2021/01/18 08:56:06;;;;;;;45.73;19.42;;;;;;;-15.42;68.53;100396.84;1786007;79;21188;-65
2021/01/18 08:58:40;;;;;;;30.77;14.50;;;;;;;-15.29;68.28;100389.98;1796580;79;21121;-65
2021/01/18 09:01:21;;;;;;;36.42;17.00;;;;;;;-15.20;68.23;100385.14;1796705;78;23025;-69
2021/01/18 09:04:07;;;;;;;34.18;15.85;;;;;;;-15.08;68.24;100387.95;1696563;84;21234;-67
2021/01/18 09:06:35;;;;;;;32.17;12.78;;;;;;;-14.94;68.01;100388.30;1739254;80;21184;-65
2021/01/18 09:09:10;;;;;;;42.98;15.80;;;;;;;-14.92;67.67;100387.06;1754450;81;21189;-67
2021/01/18 09:11:39;;;;;;;41.80;17.53;;;;;;;-14.93;67.24;100384.09;1740936;82;21485;-68
2021/01/18 09:14:08;;;;;;;33.65;15.15;;;;;;;-14.96;67.25;100385.26;1726751;82;21611;-67
2021/01/18 09:16:40;;;;;;;37.40;15.78;;;;;;;-14.91;67.15;100381.16;1717512;82;21145;-66
2021/01/18 09:19:08;;;;;;;30.90;15.55;;;;;;;-14.88;66.87;100378.28;1739903;82;21151;-68
2021/01/18 09:21:37;;;;;;;42.70;19.23;;;;;;;-14.88;66.92;100370.67;1732490;82;21627;-67
2021/01/18 09:24:07;;;;;;;26.35;11.63;;;;;;;-14.78;67.07;100370.47;1717122;82;21610;-66
2021/01/18 09:26:35;;;;;;;40.43;17.40;;;;;;;-14.66;66.77;100371.18;1737968;81;22785;-68
2021/01/18 09:29:03;;;;;;;27.50;11.97;;;;;;;-14.70;66.29;100367.70;1740264;81;21611;-68
2021/01/18 09:31:31;;;;;;;35.52;15.90;;;;;;;-14.68;66.47;100366.05;1709682;82;21622;-67
2021/01/18 09:34:12;;;;;;;33.98;15.08;;;;;;;-14.56;66.58;100366.34;1735602;82;21136;-67
2021/01/18 09:36:43;;;;;;;29.27;11.28;;;;;;;-14.34;66.62;100365.48;1740498;82;21184;-68
2021/01/18 09:39:20;;;;;;;56.45;22.50;;;;;;;-14.16;66.59;100362.05;1727039;80;23083;-68
2021/01/18 09:41:51;;;;;;;56.60;22.85;;;;;;;-14.09;65.74;100359.19;1710245;82;21010;-67
2021/01/18 09:44:18;;;;;;;34.03;15.03;;;;;;;-14.14;65.61;100370.53;1720782;82;21543;-66
2021/01/18 09:46:46;;;;;;;29.87;12.07;;;;;;;-14.23;64.92;100369.08;1745171;82;22243;-68
2021/01/18 09:49:26;;;;;;;29.10;13.53;;;;;;;-14.34;65.05;100364.20;1749558;80;21164;-68
2021/01/18 09:51:55;;;;;;;29.98;13.32;;;;;;;-14.29;65.31;100363.45;1749612;81;21611;-66
2021/01/18 09:54:24;;;;;;;37.35;18.23;;;;;;;-14.09;65.58;100364.27;1749152;80;22366;-68
2021/01/18 09:56:53;;;;;;;36.50;15.45;;;;;;;-13.98;64.78;100356.06;1725927;82;21188;-67
2021/01/18 09:59:20;;;;;;;34.25;16.02;;;;;;;-13.94;64.95;100350.61;1738465;80;21158;-69
2021/01/18 10:01:51;;;;;;;26.30;12.18;;;;;;;-13.77;64.94;100354.73;1737138;82;21187;-68
2021/01/18 10:04:25;;;;;;;39.38;18.73;;;;;;;-13.59;64.82;100361.42;1718631;81;21893;-68
2021/01/18 10:07:03;;;;;;;31.68;15.18;;;;;;;-13.49;64.35;100354.81;1756994;80;21611;-68
2021/01/18 10:09:34;;;;;;;34.10;15.00;;;;;;;-13.46;63.79;100358.25;1747476;80;21192;-68
2021/01/18 10:12:04;;;;;;;29.30;13.22;;;;;;;-13.59;63.19;100357.19;1727626;81;21650;-69
2021/01/18 10:14:32;;;;;;;31.40;15.72;;;;;;;-13.72;63.37;100356.93;1746838;81;21159;-69
2021/01/18 10:17:06;;;;;;;37.53;16.35;;;;;;;-13.76;63.56;100359.84;1741884;81;21892;-69
2021/01/18 10:19:36;;;;;;;66.05;26.00;;;;;;;-13.67;63.58;100361.28;1745597;81;21184;-68
2021/01/18 10:24:58;;;;;;;33.08;14.53;;;;;;;-13.33;63.15;100363.97;1746771;81;21130;-69
2021/01/18 10:27:28;;;;;;;32.80;15.90;;;;;;;-13.44;62.57;100360.81;1731670;81;21154;-68
2021/01/18 10:30:14;;;;;;;45.40;20.90;;;;;;;-13.55;62.77;100358.50;1734752;81;22919;-68
2021/01/18 10:32:45;;;;;;;40.73;19.17;;;;;;;-13.57;62.95;100358.48;1756123;80;21181;-68
2021/01/18 10:35:31;;;;;;;27.65;13.15;;;;;;;-13.31;63.32;100363.59;1717427;83;21151;-67
2021/01/18 10:38:22;;;;;;;38.63;16.80;;;;;;;-13.05;63.28;100357.60;1734100;82;21191;-68
2021/01/18 10:41:06;;;;;;;30.57;13.83;;;;;;;-12.86;62.98;100359.16;1712684;82;21449;-68
2021/01/18 10:43:35;;;;;;;118.95;38.15;;;;;;;-12.76;62.44;100350.82;1701197;83;22073;-70
2021/01/18 10:46:09;;;;;;;41.42;17.77;;;;;;;-12.60;62.67;100348.09;1715083;83;21743;-68
2021/01/18 10:48:37;;;;;;;35.17;16.32;;;;;;;-12.46;62.17;100338.51;1716119;83;21127;-72
2021/01/18 10:51:05;;;;;;;37.25;17.75;;;;;;;-12.64;61.90;100342.50;1694911;82;22231;-69
2021/01/18 10:53:33;;;;;;;33.33;15.70;;;;;;;-12.87;61.21;100349.41;1689847;84;21203;-71
2021/01/18 10:56:14;;;;;;;40.12;17.57;;;;;;;-12.99;61.17;100337.79;1703189;84;22118;-67
2021/01/18 10:58:55;;;;;;;27.82;15.30;;;;;;;-12.99;61.41;100337.79;1701921;84;21157;-67
2021/01/18 11:01:25;;;;;;;34.73;15.48;;;;;;;-12.84;61.47;100325.28;1702450;82;21142;-68
2021/01/18 11:03:53;;;;;;;33.92;17.30;;;;;;;-12.73;61.15;100330.55;1731838;81;21444;-67
2021/01/18 11:06:22;;;;;;;39.03;17.35;;;;;;;-12.66;61.21;100317.47;1731660;81;21151;-69
2021/01/18 11:08:52;;;;;;;28.98;13.62;;;;;;;-12.45;61.45;100310.98;1729858;81;22894;-67
2021/01/18 11:11:29;;;;;;;28.95;14.68;;;;;;;-12.35;60.52;100306.86;1718811;83;21227;-67
2021/01/18 11:14:01;;;;;;;25.50;12.23;;;;;;;-12.32;60.44;100311.98;1747462;81;21166;-66
2021/01/18 11:16:31;;;;;;;27.05;12.88;;;;;;;-12.23;61.06;100313.36;1719418;83;21254;-66
2021/01/18 11:19:06;;;;;;;24.70;11.80;;;;;;;-12.01;60.98;100314.86;1734886;82;21134;-67
2021/01/18 11:21:34;;;;;;;21.95;10.85;;;;;;;-11.92;60.96;100308.59;1733260;82;22119;-68
2021/01/18 11:24:02;;;;;;;24.98;12.47;;;;;;;-11.77;60.74;100302.36;1734532;82;21149;-65
2021/01/18 11:26:29;;;;;;;24.70;12.50;;;;;;;-11.69;59.34;100307.50;1734980;82;21644;-67
2021/01/18 11:28:57;;;;;;;31.80;15.80;;;;;;;-11.90;59.28;100301.81;1702520;84;21156;-67
2021/01/18 11:31:25;;;;;;;32.55;14.73;;;;;;;-12.16;58.70;100304.08;1702581;84;21172;-67
2021/01/18 11:33:53;;;;;;;29.23;14.23;;;;;;;-12.36;59.33;100298.77;1726438;82;21908;-67